Time;durP1;ratioP1;P1;durP2;ratioP2;P2;SDS_P1;SDS_P2;PMS_P1;PMS_P2;Temp;Humidity;BMP_temperature;BMP_pressure;BME280_temperature;BME280_humidity;BME280_pressure;Samples;Min_cycle;Max_cycle;Signal;HPM_P1;HPM_P2
2023/12/21 00:00:41;;;;;;;5.03;2.07;;;;;;;4.86;100.00;99760.50;5000707;28;20210;-73
2023/12/21 00:03:07;;;;;;;6.17;2.60;;;;;;;4.88;100.00;99760.19;4996275;28;20208;-72
2023/12/21 00:05:34;;;;;;;4.33;2.03;;;;;;;4.91;100.00;99754.34;4999883;28;20212;-73
2023/12/21 00:08:00;;;;;;;4.90;2.37;;;;;;;4.92;100.00;99746.19;4999193;28;20212;-72
2023/12/21 00:10:27;;;;;;;4.80;2.00;;;;;;;4.95;100.00;99732.50;4997181;28;20220;-72
2023/12/21 00:12:53;;;;;;;4.80;2.10;;;;;;;4.96;100.00;99720.19;4999038;28;20212;-72
2023/12/21 00:15:20;;;;;;;3.37;1.60;;;;;;;5.00;100.00;99724.50;5001177;28;20221;-72
2023/12/21 00:17:47;;;;;;;2.87;1.97;;;;;;;5.02;100.00;99705.88;4997246;28;20427;-72
2023/12/21 00:20:14;;;;;;;3.20;1.70;;;;;;;5.04;100.00;99704.50;4999473;28;20248;-72
2023/12/21 00:22:40;;;;;;;3.17;1.60;;;;;;;5.05;100.00;99690.34;5002333;28;20651;-72
2023/12/21 00:25:07;;;;;;;3.00;1.50;;;;;;;5.08;100.00;99684.47;4998015;28;20196;-73
2023/12/21 00:27:33;;;;;;;2.30;1.70;;;;;;;5.11;100.00;99677.84;4997034;28;20207;-72
2023/12/21 00:30:00;;;;;;;2.27;1.50;;;;;;;5.12;100.00;99666.31;4997001;28;20237;-73
2023/12/21 00:32:26;;;;;;;2.17;1.37;;;;;;;5.12;100.00;99661.84;4999931;28;20565;-73
2023/12/21 00:34:54;;;;;;;3.87;1.50;;;;;;;5.14;100.00;99654.44;4997794;28;20592;-73
2023/12/21 00:37:21;;;;;;;2.47;1.40;;;;;;;5.14;100.00;99648.44;4996442;28;20272;-74
2023/12/21 00:39:48;;;;;;;2.63;1.20;;;;;;;5.16;100.00;99643.66;5000343;28;20221;-72
2023/12/21 00:42:14;;;;;;;3.27;1.33;;;;;;;5.17;100.00;99629.50;5000674;28;20207;-74
2023/12/21 00:44:41;;;;;;;5.03;1.37;;;;;;;5.18;100.00;99621.34;5000934;28;20684;-74
2023/12/21 00:47:07;;;;;;;0.97;0.90;;;;;;;5.19;100.00;99617.63;5002817;28;20592;-74
2023/12/21 00:49:33;;;;;;;1.70;1.20;;;;;;;5.21;100.00;99612.88;5003755;28;20738;-74
2023/12/21 00:52:01;;;;;;;3.17;1.20;;;;;;;5.21;100.00;99602.41;5002188;28;20568;-74
2023/12/21 00:54:27;;;;;;;2.30;1.10;;;;;;;5.21;100.00;99594.56;5001436;28;20584;-74
2023/12/21 00:56:54;;;;;;;0.97;0.80;;;;;;;5.24;100.00;99578.22;5003738;28;20704;-74
2023/12/21 00:59:20;;;;;;;1.27;0.90;;;;;;;5.26;100.00;99577.91;5000527;28;20229;-74
2023/12/21 01:01:46;;;;;;;1.90;1.10;;;;;;;5.27;100.00;99572.38;5001459;28;20521;-74
2023/12/21 01:04:13;;;;;;;1.80;0.93;;;;;;;5.29;100.00;99561.59;4999806;28;20869;-73
2023/12/21 01:06:42;;;;;;;2.53;1.03;;;;;;;5.30;100.00;99568.34;5005732;28;20197;-74
2023/12/21 01:09:09;;;;;;;3.97;1.00;;;;;;;5.31;100.00;99568.03;4999257;28;20231;-73
2023/12/21 01:11:36;;;;;;;1.77;1.00;;;;;;;5.35;100.00;99561.09;5002141;28;20600;-73
2023/12/21 01:14:02;;;;;;;2.60;1.20;;;;;;;5.35;100.00;99550.63;5002827;28;20576;-72
2023/12/21 01:16:28;;;;;;;2.13;1.20;;;;;;;5.39;100.00;99550.75;5004894;28;20655;-74
2023/12/21 01:18:55;;;;;;;1.10;1.00;;;;;;;5.40;100.00;99541.81;5004801;28;20228;-74
2023/12/21 01:21:20;;;;;;;2.83;1.13;;;;;;;5.41;100.00;99523.19;4998899;28;20202;-74
2023/12/21 01:23:47;;;;;;;2.77;1.30;;;;;;;5.42;100.00;99527.34;5004050;28;20707;-74
2023/12/21 01:26:14;;;;;;;1.37;1.13;;;;;;;5.44;100.00;99530.38;5000211;28;20673;-74
2023/12/21 01:28:41;;;;;;;3.40;1.37;;;;;;;5.46;100.00;99524.84;4999455;28;20217;-73
2023/12/21 01:31:07;;;;;;;2.53;1.50;;;;;;;5.48;100.00;99514.81;5002343;28;20294;-74
2023/12/21 01:33:34;;;;;;;3.43;1.30;;;;;;;5.48;100.00;99518.22;5001613;28;20188;-73
2023/12/21 01:36:01;;;;;;;1.27;0.90;;;;;;;5.49;100.00;99496.19;5000004;28;20213;-74
2023/12/21 01:38:28;;;;;;;2.10;1.20;;;;;;;5.50;100.00;99489.84;4999635;28;20217;-75
2023/12/21 01:40:54;;;;;;;1.73;1.10;;;;;;;5.52;100.00;99489.53;4995494;28;20584;-74
2023/12/21 01:43:22;;;;;;;1.63;1.33;;;;;;;5.53;100.00;99475.34;5000850;28;20200;-74
2023/12/21 01:45:48;;;;;;;1.27;1.07;;;;;;;5.54;100.00;99469.06;5002985;28;20678;-73
2023/12/21 01:48:15;;;;;;;1.67;1.13;;;;;;;5.54;100.00;99464.56;5002468;28;20568;-74
2023/12/21 01:50:42;;;;;;;1.10;0.97;;;;;;;5.55;100.00;99462.72;4998981;28;20232;-74
2023/12/21 01:53:11;;;;;;;2.97;1.10;;;;;;;5.58;100.00;99469.94;5001533;28;20216;-74
2023/12/21 01:55:38;;;;;;;1.00;1.00;;;;;;;5.59;100.00;99463.63;4998765;28;20201;-74
2023/12/21 01:58:05;;;;;;;1.27;1.17;;;;;;;5.60;100.00;99459.91;4998707;28;20205;-73
2023/12/21 02:00:33;;;;;;;1.80;1.47;;;;;;;5.61;100.00;99443.13;5002743;28;20222;-74
2023/12/21 02:02:59;;;;;;;2.73;1.10;;;;;;;5.61;100.00;99443.91;5001752;28;20569;-74
2023/12/21 02:05:26;;;;;;;1.40;1.10;;;;;;;5.64;100.00;99440.63;4998891;28;20221;-74
2023/12/21 02:07:52;;;;;;;2.30;1.00;;;;;;;5.65;100.00;99436.16;4997539;28;20438;-75
2023/12/21 02:10:19;;;;;;;2.23;1.00;;;;;;;5.65;100.00;99444.78;4998090;28;20216;-74
2023/12/21 02:12:45;;;;;;;1.97;0.97;;;;;;;5.67;100.00;99421.66;5001002;28;20215;-72
2023/12/21 02:15:12;;;;;;;2.97;1.00;;;;;;;5.68;100.00;99433.66;4998534;28;20221;-73
2023/12/21 02:17:42;;;;;;;1.10;1.00;;;;;;;5.69;100.00;99434.44;5001445;28;20201;-75
2023/12/21 02:20:09;;;;;;;1.30;1.07;;;;;;;5.70;100.00;99418.38;4998764;28;20232;-74
2023/12/21 02:22:38;;;;;;;2.23;0.90;;;;;;;5.72;100.00;99416.22;5001481;28;20661;-73
2023/12/21 02:25:06;;;;;;;1.73;1.10;;;;;;;5.72;100.00;99415.47;5002110;28;20197;-74
2023/12/21 02:27:34;;;;;;;3.13;1.00;;;;;;;5.72;100.00;99424.09;4998186;28;20758;-74
2023/12/21 02:30:00;;;;;;;2.47;1.20;;;;;;;5.73;100.00;99424.84;5001002;28;20667;-74
2023/12/21 02:32:26;;;;;;;0.83;0.80;;;;;;;5.75;100.00;99417.44;4996622;28;20200;-74
2023/12/21 02:34:53;;;;;;;1.20;0.90;;;;;;;5.74;100.00;99406.19;4995770;28;20215;-74
2023/12/21 02:37:20;;;;;;;1.50;0.80;;;;;;;5.74;100.00;99389.69;4998314;28;20198;-74
2023/12/21 02:39:47;;;;;;;1.60;1.07;;;;;;;5.76;100.00;99404.00;4998780;28;20233;-74
2023/12/21 02:42:14;;;;;;;1.03;0.93;;;;;;;5.76;100.00;99377.06;4997553;28;20226;-74
2023/12/21 02:44:41;;;;;;;2.10;1.00;;;;;;;5.78;100.00;99374.88;5000674;28;20193;-74
2023/12/21 02:47:07;;;;;;;0.80;0.80;;;;;;;5.78;100.00;99383.50;4999745;28;20227;-73
2023/12/21 02:49:33;;;;;;;2.67;1.10;;;;;;;5.80;100.00;99367.50;5001054;28;20227;-74
2023/12/21 02:52:00;;;;;;;1.97;0.90;;;;;;;5.81;100.00;99359.31;4999247;28;20200;-74
2023/12/21 02:54:26;;;;;;;0.80;0.77;;;;;;;5.82;100.00;99360.09;5000187;28;20227;-74
2023/12/21 02:56:52;;;;;;;0.80;0.80;;;;;;;5.85;100.00;99348.97;5000360;28;20209;-73
2023/12/21 02:59:20;;;;;;;1.43;0.80;;;;;;;5.85;100.00;99349.72;4993699;28;20736;-73
2023/12/21 03:01:46;;;;;;;2.10;0.57;;;;;;;5.86;100.00;99342.63;5001614;28;20544;-74
2023/12/21 03:04:13;;;;;;;1.03;0.93;;;;;;;5.88;100.00;99338.59;4994029;28;20206;-74
2023/12/21 03:06:40;;;;;;;1.93;0.87;;;;;;;5.89;100.00;99340.13;4999615;28;20207;-74
2023/12/21 03:09:06;;;;;;;0.90;0.70;;;;;;;5.92;100.00;99336.09;4992073;28;20217;-74
2023/12/21 03:11:33;;;;;;;0.70;0.70;;;;;;;5.92;100.00;99326.41;5000138;28;20203;-74
2023/12/21 03:13:59;;;;;;;1.63;0.77;;;;;;;5.95;100.00;99320.50;4996620;28;20615;-74
2023/12/21 03:16:27;;;;;;;1.00;0.90;;;;;;;5.97;100.00;99326.19;4998743;28;20217;-73
2023/12/21 03:18:53;;;;;;;2.13;0.80;;;;;;;6.00;100.00;99330.78;4996478;28;20221;-73
2023/12/21 03:21:19;;;;;;;1.30;1.20;;;;;;;6.02;100.00;99331.19;4998565;28;20215;-74
2023/12/21 03:23:46;;;;;;;1.23;0.83;;;;;;;6.04;100.00;99323.00;4996458;28;20581;-74
2023/12/21 03:26:14;;;;;;;1.50;1.03;;;;;;;6.04;100.00;99318.56;4995815;28;20193;-75
2023/12/21 03:28:44;;;;;;;1.00;1.00;;;;;;;6.06;100.00;99313.00;5000152;28;20217;-74
2023/12/21 03:31:11;;;;;;;1.43;0.97;;;;;;;6.06;100.00;99318.22;4998191;28;20387;-74
2023/12/21 03:33:39;;;;;;;2.27;1.10;;;;;;;6.07;100.00;99304.03;5001856;28;20189;-74
2023/12/21 03:36:06;;;;;;;1.10;0.93;;;;;;;6.08;100.00;99306.34;4998452;28;20223;-74
2023/12/21 03:38:33;;;;;;;1.13;1.03;;;;;;;6.07;100.00;99299.53;4992890;28;20319;-74
2023/12/21 03:40:59;;;;;;;1.07;0.80;;;;;;;6.08;100.00;99292.47;4997102;28;20209;-73
2023/12/21 03:43:25;;;;;;;0.60;0.60;;;;;;;6.09;100.00;99293.97;4998009;28;20212;-74
2023/12/21 03:45:51;;;;;;;2.00;0.70;;;;;;;6.10;100.00;99298.91;4995634;28;20199;-74
2023/12/21 03:48:18;;;;;;;1.07;0.90;;;;;;;6.10;100.00;99285.81;4995806;28;20684;-73
2023/12/21 03:50:45;;;;;;;0.73;0.70;;;;;;;6.12;100.00;99295.97;4998262;28;20200;-73
2023/12/21 03:53:14;;;;;;;1.17;1.07;;;;;;;6.14;100.00;99288.53;4999518;28;20674;-74
2023/12/21 03:55:40;;;;;;;1.20;1.00;;;;;;;6.14;100.00;99284.06;4997323;28;20208;-73
2023/12/21 03:58:06;;;;;;;1.00;1.00;;;;;;;6.15;100.00;99279.56;4996009;28;20676;-73
2023/12/21 04:00:33;;;;;;;0.80;0.70;;;;;;;6.14;100.00;99281.44;4999417;28;20212;-74
2023/12/21 04:02:59;;;;;;;0.60;0.60;;;;;;;6.15;100.00;99277.72;4996011;28;20246;-74
2023/12/21 04:05:26;;;;;;;0.77;0.77;;;;;;;6.15;100.00;99274.31;4998188;28;20197;-73
2023/12/21 04:07:53;;;;;;;0.70;0.70;;;;;;;6.17;100.00;99277.41;4997781;28;20212;-74
2023/12/21 04:10:20;;;;;;;0.90;0.73;;;;;;;6.17;100.00;99269.53;4995544;28;20723;-73
2023/12/21 04:12:46;;;;;;;1.17;0.70;;;;;;;6.18;100.00;99268.44;4994889;28;20600;-74
2023/12/21 04:15:12;;;;;;;3.13;0.90;;;;;;;6.18;100.00;99271.84;4995901;28;20214;-74
2023/12/21 04:17:39;;;;;;;1.43;0.80;;;;;;;6.21;100.00;99265.19;4996820;28;20271;-73
2023/12/21 04:20:07;;;;;;;0.67;0.63;;;;;;;6.22;100.00;99266.69;4996431;28;20227;-74
2023/12/21 04:22:34;;;;;;;0.93;0.80;;;;;;;6.22;100.00;99272.69;5001774;28;20200;-74
2023/12/21 04:25:01;;;;;;;0.70;0.70;;;;;;;6.25;100.00;99281.75;4993419;28;20321;-73
2023/12/21 04:27:28;;;;;;;0.70;0.70;;;;;;;6.25;100.00;99268.66;5003634;28;20205;-73
2023/12/21 04:29:55;;;;;;;1.13;1.00;;;;;;;6.25;100.00;99272.03;5006020;28;20295;-74
2023/12/21 04:32:21;;;;;;;1.53;0.87;;;;;;;6.26;100.00;99273.56;5006139;28;20279;-73
2023/12/21 04:34:47;;;;;;;0.80;0.80;;;;;;;6.27;100.00;99271.72;5004617;28;20209;-74
2023/12/21 04:37:14;;;;;;;0.83;0.80;;;;;;;6.30;100.00;99278.91;5008767;28;20196;-74
2023/12/21 04:39:40;;;;;;;1.00;0.70;;;;;;;6.29;100.00;99275.56;5012429;28;20228;-74
2023/12/21 04:42:08;;;;;;;1.77;0.80;;;;;;;6.29;100.00;99272.94;5009475;28;20198;-75
2023/12/21 04:44:34;;;;;;;0.60;0.60;;;;;;;6.30;100.00;99268.44;5004224;28;20601;-73
2023/12/21 04:47:02;;;;;;;0.70;0.70;;;;;;;6.30;100.00;99271.84;5006501;28;20211;-73
2023/12/21 04:49:28;;;;;;;1.00;0.90;;;;;;;6.31;100.00;99257.63;5005567;28;20220;-74
2023/12/21 04:51:54;;;;;;;0.93;0.90;;;;;;;6.32;100.00;99261.03;5004803;28;20220;-74
2023/12/21 04:54:21;;;;;;;1.20;1.10;;;;;;;6.32;100.00;99242.69;5007751;28;20213;-74
2023/12/21 04:56:47;;;;;;;1.00;0.90;;;;;;;6.33;100.00;99247.56;5008593;28;20220;-74
2023/12/21 04:59:15;;;;;;;1.17;1.00;;;;;;;6.33;100.00;99246.81;5010605;28;20235;-73
2023/12/21 05:01:41;;;;;;;0.90;0.90;;;;;;;6.34;100.00;99243.09;5006036;28;20201;-73
2023/12/21 05:04:09;;;;;;;0.83;0.83;;;;;;;6.34;100.00;99238.63;5003199;28;20201;-73
2023/12/21 05:06:36;;;;;;;1.47;1.10;;;;;;;6.36;100.00;99231.19;5000547;28;20197;-74
2023/12/21 05:09:03;;;;;;;1.10;1.00;;;;;;;6.37;100.00;99234.59;4999130;28;20229;-74
2023/12/21 05:11:29;;;;;;;3.07;0.93;;;;;;;6.37;100.00;99240.56;4995195;28;20211;-74
2023/12/21 05:13:56;;;;;;;1.20;1.00;;;;;;;6.37;100.00;99237.22;4999107;28;20210;-74
2023/12/21 05:16:23;;;;;;;1.33;0.90;;;;;;;6.38;100.00;99226.38;5001360;28;20292;-73
2023/12/21 05:18:50;;;;;;;1.10;0.90;;;;;;;6.39;100.00;99224.53;4998435;28;20225;-74
2023/12/21 05:21:16;;;;;;;1.33;0.93;;;;;;;6.39;100.00;99229.75;4998777;28;20284;-73
2023/12/21 05:23:43;;;;;;;1.43;0.90;;;;;;;6.40;100.00;99229.44;5001195;28;20201;-73
2023/12/21 05:26:11;;;;;;;2.07;0.90;;;;;;;6.41;100.00;99225.72;4999389;28;20207;-74
2023/12/21 05:28:38;;;;;;;1.60;1.10;;;;;;;6.42;100.00;99216.75;4997444;28;20266;-74
2023/12/21 05:31:05;;;;;;;1.10;0.70;;;;;;;6.44;100.00;99225.06;4997751;28;20212;-74
2023/12/21 05:33:32;;;;;;;1.30;1.00;;;;;;;6.45;100.00;99220.56;5017807;28;20217;-74
2023/12/21 05:35:59;;;;;;;2.10;1.00;;;;;;;6.46;100.00;99219.47;4998038;28;20592;-74
2023/12/21 05:38:25;;;;;;;2.30;0.90;;;;;;;6.48;100.00;99219.94;4995927;28;20201;-74
2023/12/21 05:40:51;;;;;;;1.93;0.93;;;;;;;6.49;100.00;99216.19;5000823;28;20595;-74
2023/12/21 05:43:19;;;;;;;0.93;0.93;;;;;;;6.50;100.00;99210.63;4999569;28;20202;-74
2023/12/21 05:45:45;;;;;;;1.97;0.87;;;;;;;6.52;100.00;99199.81;5001326;28;20225;-75
2023/12/21 05:48:14;;;;;;;0.87;0.87;;;;;;;6.54;100.00;99205.50;4998890;28;20723;-74
2023/12/21 05:50:42;;;;;;;1.30;1.03;;;;;;;6.55;100.00;99202.53;5000069;28;20657;-74
2023/12/21 05:53:08;;;;;;;0.77;0.77;;;;;;;6.56;100.00;99204.06;4994907;28;20232;-74
2023/12/21 05:55:35;;;;;;;1.63;0.90;;;;;;;6.58;100.00;99206.34;4995916;28;20224;-74
2023/12/21 05:58:01;;;;;;;1.50;0.97;;;;;;;6.57;100.00;99205.59;4997477;28;20233;-74
2023/12/21 06:00:28;;;;;;;0.93;0.80;;;;;;;6.59;100.00;99192.91;4996118;28;20227;-73
2023/12/21 06:02:54;;;;;;;1.10;1.00;;;;;;;6.60;100.00;99194.44;4995883;28;20203;-75
2023/12/21 06:05:21;;;;;;;0.80;0.80;;;;;;;6.62;100.00;99183.63;4997428;28;20193;-74
2023/12/21 06:07:48;;;;;;;1.30;1.20;;;;;;;6.62;100.00;99173.13;4996022;28;20578;-74
2023/12/21 06:10:15;;;;;;;0.80;0.80;;;;;;;6.62;100.00;99168.63;4995523;28;20220;-74
2023/12/21 06:12:41;;;;;;;3.90;0.90;;;;;;;6.65;100.00;99167.22;5001776;28;20197;-74
2023/12/21 06:15:08;;;;;;;0.70;0.70;;;;;;;6.64;100.00;99178.81;4996630;28;20879;-75
2023/12/21 06:17:34;;;;;;;1.27;0.97;;;;;;;6.64;100.00;99165.69;4993289;28;20216;-74
2023/12/21 06:20:01;;;;;;;1.10;0.80;;;;;;;6.66;100.00;99171.34;4996093;28;20220;-74
2023/12/21 06:22:27;;;;;;;0.50;0.50;;;;;;;6.65;100.00;99167.22;4997992;28;20383;-74
2023/12/21 06:24:55;;;;;;;0.80;0.80;;;;;;;6.64;100.00;99155.94;4995609;28;20216;-74
2023/12/21 06:27:21;;;;;;;0.73;0.70;;;;;;;6.64;100.00;99163.81;4988888;28;20187;-74
2023/12/21 06:29:47;;;;;;;1.27;0.83;;;;;;;6.63;100.00;99154.41;4989456;28;20232;-75
2023/12/21 06:32:13;;;;;;;1.00;0.80;;;;;;;6.64;100.00;99155.19;4997657;28;20693;-75
2023/12/21 06:34:40;;;;;;;0.70;0.70;;;;;;;6.63;100.00;99157.03;4998565;28;20198;-75
2023/12/21 06:37:07;;;;;;;0.80;0.80;;;;;;;6.63;100.00;99149.19;4998125;28;20811;-74
2023/12/21 06:39:33;;;;;;;0.50;0.50;;;;;;;6.62;100.00;99137.16;4995340;28;20592;-75
2023/12/21 06:42:01;;;;;;;0.63;0.63;;;;;;;6.63;100.00;99122.19;4998234;28;20259;-74
2023/12/21 06:44:28;;;;;;;0.77;0.73;;;;;;;6.62;100.00;99131.91;5001195;28;20294;-74
2023/12/21 06:46:56;;;;;;;0.50;0.50;;;;;;;6.62;100.00;99123.31;5000689;28;20657;-74
2023/12/21 06:49:22;;;;;;;0.90;0.83;;;;;;;6.60;100.00;99118.38;5001643;28;20224;-73
2023/12/21 06:51:49;;;;;;;0.50;0.50;;;;;;;6.59;100.00;99105.59;4999770;28;20212;-74
2023/12/21 06:54:15;;;;;;;0.63;0.63;;;;;;;6.59;100.00;99113.47;5000769;28;20224;-74
2023/12/21 06:56:41;;;;;;;0.40;0.40;;;;;;;6.59;100.00;99100.34;4999806;28;20225;-74
2023/12/21 06:59:09;;;;;;;0.60;0.60;;;;;;;6.58;100.00;99104.09;5001958;28;20314;-74
2023/12/21 07:01:35;;;;;;;0.60;0.60;;;;;;;6.57;100.00;99087.56;4996812;28;20200;-74
2023/12/21 07:04:02;;;;;;;0.57;0.57;;;;;;;6.56;100.00;99075.56;4992217;28;20220;-73
2023/12/21 07:06:28;;;;;;;0.40;0.40;;;;;;;6.58;100.00;99078.59;4993730;28;20223;-73
2023/12/21 07:08:55;;;;;;;0.50;0.50;;;;;;;6.57;100.00;99076.34;4999182;28;20236;-74
2023/12/21 07:11:21;;;;;;;0.50;0.37;;;;;;;6.58;100.00;99070.75;5002342;28;20189;-74
2023/12/21 07:13:49;;;;;;;1.40;0.50;;;;;;;6.57;100.00;99077.09;4998464;28;20335;-74
2023/12/21 07:16:16;;;;;;;0.50;0.40;;;;;;;6.59;100.00;99074.13;5000439;28;20212;-74
2023/12/21 07:18:43;;;;;;;0.40;0.40;;;;;;;6.57;100.00;99079.72;4998828;28;20219;-74
2023/12/21 07:21:09;;;;;;;0.57;0.53;;;;;;;6.57;100.00;99050.13;4995189;28;20498;-74
2023/12/21 07:23:36;;;;;;;0.70;0.33;;;;;;;6.59;100.00;99061.03;4995097;28;20232;-74
2023/12/21 07:26:02;;;;;;;0.40;0.40;;;;;;;6.57;100.00;99063.97;5002951;28;20286;-74
2023/12/21 07:28:30;;;;;;;0.53;0.50;;;;;;;6.57;100.00;99048.25;4998902;28;20275;-73
2023/12/21 07:30:59;;;;;;;0.43;0.43;;;;;;;6.59;100.00;99040.03;4999089;28;20209;-73
2023/12/21 07:33:27;;;;;;;0.63;0.63;;;;;;;6.58;100.00;99026.16;4998473;28;20652;-74
2023/12/21 07:35:53;;;;;;;0.47;0.47;;;;;;;6.61;100.00;99028.13;5003641;28;20223;-73
2023/12/21 07:38:19;;;;;;;0.50;0.50;;;;;;;6.61;100.00;99017.63;5001099;28;20213;-74
2023/12/21 07:40:46;;;;;;;0.60;0.60;;;;;;;6.62;100.00;99018.41;5001084;28;20268;-74
2023/12/21 07:43:12;;;;;;;0.50;0.50;;;;;;;6.62;100.00;99013.91;4995752;28;20664;-74
2023/12/21 07:45:39;;;;;;;0.50;0.50;;;;;;;6.63;100.00;98996.31;5001753;28;20208;-74
2023/12/21 07:48:06;;;;;;;0.40;0.40;;;;;;;6.63;100.00;98991.06;4997475;28;20462;-74
2023/12/21 07:50:34;;;;;;;0.57;0.57;;;;;;;6.63;100.00;98996.31;4999959;28;20221;-74
2023/12/21 07:53:00;;;;;;;0.90;0.60;;;;;;;6.63;100.00;98983.94;4995983;28;20201;-74
2023/12/21 07:55:26;;;;;;;0.50;0.50;;;;;;;6.65;100.00;98981.78;5001720;28;20227;-74
2023/12/21 07:57:53;;;;;;;0.60;0.60;;;;;;;6.63;100.00;98962.97;4996498;28;20565;-73
2023/12/21 08:00:19;;;;;;;0.70;0.70;;;;;;;6.66;100.00;98958.91;4998207;28;20221;-73
2023/12/21 08:02:46;;;;;;;0.60;0.60;;;;;;;6.65;100.00;98949.53;4995452;28;20197;-74
2023/12/21 08:05:13;;;;;;;0.60;0.60;;;;;;;6.65;100.00;98944.28;4999193;28;20193;-73
2023/12/21 08:07:41;;;;;;;1.60;0.60;;;;;;;6.68;100.00;98956.72;4996584;28;20604;-73
2023/12/21 08:10:08;;;;;;;0.90;0.80;;;;;;;6.69;100.00;98945.13;4995733;28;20224;-74
2023/12/21 08:12:35;;;;;;;0.90;0.90;;;;;;;6.70;100.00;98934.31;4996830;28;20205;-73
2023/12/21 08:15:02;;;;;;;1.40;1.03;;;;;;;6.70;100.00;98920.41;4998180;28;20204;-73
2023/12/21 08:17:29;;;;;;;0.70;0.70;;;;;;;6.69;100.00;98911.78;5000511;28;20213;-74
2023/12/21 08:19:56;;;;;;;2.20;1.47;;;;;;;6.72;100.00;98899.84;4999285;28;20225;-73
2023/12/21 08:22:22;;;;;;;2.40;1.40;;;;;;;6.73;100.00;98888.28;4994500;28;20197;-73
2023/12/21 08:24:51;;;;;;;0.90;0.80;;;;;;;6.73;100.00;98896.16;5000448;28;20230;-73
2023/12/21 08:27:18;;;;;;;0.90;0.70;;;;;;;6.75;100.00;98888.69;4994785;28;20275;-74
2023/12/21 08:29:44;;;;;;;5.90;2.10;;;;;;;6.77;100.00;98871.50;4994576;28;20229;-73
2023/12/21 08:32:10;;;;;;;6.30;2.33;;;;;;;6.77;100.00;98871.50;4997573;28;20884;-73
2023/12/21 08:34:37;;;;;;;1.63;0.90;;;;;;;6.79;100.00;98858.06;4993219;28;20205;-73
2023/12/21 08:37:03;;;;;;;1.90;0.90;;;;;;;6.82;100.00;98839.78;4998515;28;20221;-73
2023/12/21 08:39:30;;;;;;;0.70;0.70;;;;;;;6.82;100.00;98852.13;4997742;28;20716;-73
2023/12/21 08:41:58;;;;;;;0.63;0.63;;;;;;;6.83;100.00;98833.41;4998847;28;20575;-73
2023/12/21 08:44:24;;;;;;;0.60;0.60;;;;;;;6.84;100.00;98832.31;4997902;28;20786;-73
2023/12/21 08:46:50;;;;;;;0.50;0.50;;;;;;;6.86;100.00;98817.00;5000505;28;20743;-73
2023/12/21 08:49:17;;;;;;;0.53;0.53;;;;;;;6.88;100.00;98811.41;4997952;28;20585;-74
2023/12/21 08:51:44;;;;;;;1.43;0.60;;;;;;;6.89;100.00;98795.31;4996055;28;20200;-73
2023/12/21 08:54:10;;;;;;;0.53;0.53;;;;;;;6.92;100.00;98786.75;4998338;28;20201;-73
2023/12/21 08:56:42;;;;;;;0.53;0.50;;;;;;;6.94;100.00;98768.81;4997444;28;20595;-73
2023/12/21 08:59:10;;;;;;;0.60;0.60;;;;;;;6.96;100.00;98756.13;4994136;28;20213;-73
2023/12/21 09:01:38;;;;;;;2.50;0.60;;;;;;;6.97;100.00;98762.09;4994171;28;20198;-73
2023/12/21 09:04:05;;;;;;;0.70;0.70;;;;;;;7.00;100.00;98758.81;5002962;28;20212;-72
2023/12/21 09:06:32;;;;;;;0.50;0.50;;;;;;;7.03;100.00;98755.47;5001751;28;20421;-73
2023/12/21 09:08:58;;;;;;;0.60;0.60;;;;;;;7.04;100.00;98738.66;4999835;28;20279;-73
2023/12/21 09:11:27;;;;;;;0.50;0.50;;;;;;;7.06;100.00;98742.44;5002335;28;20209;-72
2023/12/21 09:13:55;;;;;;;0.70;0.70;;;;;;;7.10;100.00;98726.75;5001551;28;20200;-74
2023/12/21 09:16:23;;;;;;;0.60;0.60;;;;;;;7.11;100.00;98713.28;5001963;28;20316;-73
2023/12/21 09:18:49;;;;;;;0.60;0.60;;;;;;;7.14;100.00;98711.84;4998843;28;20503;-73
2023/12/21 09:21:15;;;;;;;0.53;0.53;;;;;;;7.16;100.00;98693.88;4999678;28;20193;-73
2023/12/21 09:23:42;;;;;;;0.57;0.50;;;;;;;7.18;100.00;98694.28;4998902;28;20204;-73
2023/12/21 09:26:09;;;;;;;0.73;0.73;;;;;;;7.19;100.00;98685.31;4999474;28;20241;-73
2023/12/21 09:28:37;;;;;;;0.50;0.50;;;;;;;7.20;100.00;98679.69;5004346;28;20236;-73
2023/12/21 09:31:04;;;;;;;0.63;0.53;;;;;;;7.20;100.00;98666.56;5000080;28;20305;-73
2023/12/21 09:33:34;;;;;;;0.53;0.53;;;;;;;7.23;100.00;98649.38;5001403;28;20207;-74
2023/12/21 09:36:00;;;;;;;0.50;0.50;;;;;;;7.22;100.00;98659.13;5000994;28;20202;-73
2023/12/21 09:38:26;;;;;;;0.53;0.53;;;;;;;7.23;100.00;98638.88;5003519;28;20245;-74
2023/12/21 09:40:53;;;;;;;0.30;0.30;;;;;;;7.22;100.00;98642.59;5002858;28;20203;-73
2023/12/21 09:43:22;;;;;;;0.60;0.50;;;;;;;7.26;100.00;98625.06;5002889;28;20785;-73
2023/12/21 09:45:51;;;;;;;0.50;0.50;;;;;;;7.27;100.00;98608.19;5001760;28;20389;-73
2023/12/21 09:48:19;;;;;;;0.60;0.60;;;;;;;7.27;100.00;98585.34;5003245;28;20208;-74
2023/12/21 09:50:49;;;;;;;0.40;0.40;;;;;;;7.27;100.00;98584.56;5003210;28;20194;-73
2023/12/21 09:53:17;;;;;;;0.70;0.70;;;;;;;7.29;100.00;98562.09;4997751;28;20278;-73
2023/12/21 09:55:46;;;;;;;1.90;0.70;;;;;;;7.32;100.00;98569.28;5003439;28;20205;-74
2023/12/21 09:58:13;;;;;;;1.63;0.40;;;;;;;7.34;100.00;98558.41;5001887;28;20220;-73
2023/12/21 10:00:40;;;;;;;0.37;0.37;;;;;;;7.34;100.00;98542.66;5000990;28;20504;-74
2023/12/21 10:03:06;;;;;;;0.50;0.50;;;;;;;7.34;100.00;98532.94;4995336;28;20223;-73
2023/12/21 10:05:33;;;;;;;0.43;0.43;;;;;;;7.35;100.00;98525.81;5003988;28;20687;-73
2023/12/21 10:08:02;;;;;;;0.50;0.50;;;;;;;7.33;100.00;98520.16;4998822;28;20190;-73
2023/12/21 10:10:29;;;;;;;0.50;0.50;;;;;;;7.33;100.00;98520.91;4996890;28;20590;-74
2023/12/21 10:12:55;;;;;;;0.50;0.50;;;;;;;7.33;100.00;98517.53;4997838;28;20213;-74
2023/12/21 10:15:21;;;;;;;0.57;0.57;;;;;;;7.33;100.00;98505.16;5003267;28;20569;-73
2023/12/21 10:17:48;;;;;;;0.37;0.37;;;;;;;7.31;100.00;98499.50;4998870;28;20228;-74
2023/12/21 10:20:14;;;;;;;2.17;0.50;;;;;;;7.33;100.00;98493.91;4994350;28;20837;-73
2023/12/21 10:22:43;;;;;;;0.40;0.40;;;;;;;7.33;100.00;98478.16;5001202;28;20676;-74
2023/12/21 10:25:11;;;;;;;3.00;0.60;;;;;;;7.33;100.00;98481.53;4998517;28;20606;-73
2023/12/21 10:27:38;;;;;;;0.50;0.50;;;;;;;7.32;100.00;98474.78;4998733;28;20580;-73
2023/12/21 10:30:05;;;;;;;0.40;0.40;;;;;;;7.32;100.00;98466.13;4999105;28;20244;-73
2023/12/21 10:32:32;;;;;;;0.50;0.50;;;;;;;7.33;100.00;98467.66;4997257;28;20213;-73
2023/12/21 10:34:59;;;;;;;0.60;0.57;;;;;;;7.33;100.00;98465.03;4998810;28;20614;-73
2023/12/21 10:37:26;;;;;;;0.40;0.40;;;;;;;7.34;100.00;98458.66;5000073;28;20216;-73
2023/12/21 10:39:56;;;;;;;0.60;0.53;;;;;;;7.36;100.00;98453.81;4997915;28;20256;-73
2023/12/21 10:42:23;;;;;;;0.33;0.33;;;;;;;7.39;100.00;98440.75;5001567;28;20196;-73
2023/12/21 10:44:50;;;;;;;0.60;0.50;;;;;;;7.41;100.00;98428.00;5001790;28;20573;-73
2023/12/21 10:47:18;;;;;;;1.67;0.40;;;;;;;7.43;100.00;98419.78;4999899;28;20607;-73
2023/12/21 10:49:45;;;;;;;0.50;0.50;;;;;;;7.44;100.00;98421.28;5001883;28;20225;-73
2023/12/21 10:52:12;;;;;;;1.77;0.50;;;;;;;7.47;100.00;98407.44;5000038;28;20708;-73
2023/12/21 10:54:41;;;;;;;0.40;0.40;;;;;;;7.47;100.00;98404.81;4999171;28;20236;-73
2023/12/21 10:57:08;;;;;;;0.47;0.47;;;;;;;7.47;100.00;98389.06;4998904;28;20222;-73
2023/12/21 10:59:36;;;;;;;0.30;0.30;;;;;;;7.47;100.00;98386.44;4998199;28;20699;-73
2023/12/21 11:02:03;;;;;;;0.40;0.40;;;;;;;7.48;100.00;98361.69;5000529;28;20221;-74
2023/12/21 11:04:30;;;;;;;0.27;0.27;;;;;;;7.49;100.00;98360.56;4997568;28;20212;-73
2023/12/21 11:06:58;;;;;;;0.40;0.40;;;;;;;7.49;100.00;98347.44;4999945;28;20213;-73
2023/12/21 11:09:26;;;;;;;0.30;0.30;;;;;;;7.53;100.00;98346.41;5002272;28;20231;-73
2023/12/21 11:11:57;;;;;;;0.50;0.50;;;;;;;7.54;100.00;98321.63;4993834;28;20311;-73
2023/12/21 11:14:23;;;;;;;0.30;0.30;;;;;;;7.58;100.00;98329.56;4996226;28;20204;-73
2023/12/21 11:16:55;;;;;;;0.30;0.30;;;;;;;7.60;100.00;98322.06;4994225;28;20680;-73
2023/12/21 11:19:27;;;;;;;0.60;0.50;;;;;;;7.63;100.00;98311.59;5000065;28;20227;-73
2023/12/21 11:21:55;;;;;;;0.40;0.40;;;;;;;7.65;100.00;98298.88;4999435;28;20205;-74
2023/12/21 11:24:22;;;;;;;0.57;0.57;;;;;;;7.67;100.00;98304.50;4999132;28;20703;-73
2023/12/21 11:26:49;;;;;;;0.70;0.70;;;;;;;7.71;100.00;98291.44;4999228;28;20216;-73
2023/12/21 11:29:24;;;;;;;0.57;0.57;;;;;;;7.73;100.00;98276.81;4996923;28;20302;-73
2023/12/21 11:31:52;;;;;;;0.50;0.50;;;;;;;7.73;100.00;98265.53;4997149;28;20197;-73